sensor_id;sensor_type;location;lat;lon;timestamp;temperature;humidity
11491;DHT22;5802;52.832;4.758;2022-08-11T00:01:50;25.40;56.50
11491;DHT22;5802;52.832;4.758;2022-08-11T00:04:20;25.40;56.50
11491;DHT22;5802;52.832;4.758;2022-08-11T00:06:49;25.50;56.50
11491;DHT22;5802;52.832;4.758;2022-08-11T00:09:18;25.40;56.50
11491;DHT22;5802;52.832;4.758;2022-08-11T00:11:48;25.40;56.50
11491;DHT22;5802;52.832;4.758;2022-08-11T00:14:17;25.40;56.60
11491;DHT22;5802;52.832;4.758;2022-08-11T00:16:53;25.40;56.60
11491;DHT22;5802;52.832;4.758;2022-08-11T00:19:24;25.40;56.60
11491;DHT22;5802;52.832;4.758;2022-08-11T00:21:52;25.30;56.60
11491;DHT22;5802;52.832;4.758;2022-08-11T00:24:20;25.30;56.60
11491;DHT22;5802;52.832;4.758;2022-08-11T00:26:48;25.30;56.60
11491;DHT22;5802;52.832;4.758;2022-08-11T00:29:16;25.30;56.60
11491;DHT22;5802;52.832;4.758;2022-08-11T00:31:45;25.30;56.60
11491;DHT22;5802;52.832;4.758;2022-08-11T00:34:16;25.30;56.60
11491;DHT22;5802;52.832;4.758;2022-08-11T00:36:49;25.30;56.70
11491;DHT22;5802;52.832;4.758;2022-08-11T00:39:19;25.30;56.70
11491;DHT22;5802;52.832;4.758;2022-08-11T00:44:51;25.30;56.80
11491;DHT22;5802;52.832;4.758;2022-08-11T00:47:32;25.30;56.80
11491;DHT22;5802;52.832;4.758;2022-08-11T00:50:08;25.20;56.70
11491;DHT22;5802;52.832;4.758;2022-08-11T00:53:02;25.20;56.80
11491;DHT22;5802;52.832;4.758;2022-08-11T00:56:15;25.20;56.80
11491;DHT22;5802;52.832;4.758;2022-08-11T00:59:10;25.20;56.80
11491;DHT22;5802;52.832;4.758;2022-08-11T01:02:04;25.20;56.90
11491;DHT22;5802;52.832;4.758;2022-08-11T01:07:59;25.10;56.90
11491;DHT22;5802;52.832;4.758;2022-08-11T01:10:53;25.10;56.90
11491;DHT22;5802;52.832;4.758;2022-08-11T01:16:57;25.10;56.90
11491;DHT22;5802;52.832;4.758;2022-08-11T01:19:55;25.10;56.90
11491;DHT22;5802;52.832;4.758;2022-08-11T01:23:03;25.10;56.90
11491;DHT22;5802;52.832;4.758;2022-08-11T01:29:04;25.10;56.90
11491;DHT22;5802;52.832;4.758;2022-08-11T01:35:23;25.00;56.90
11491;DHT22;5802;52.832;4.758;2022-08-11T01:41:49;25.00;56.90
11491;DHT22;5802;52.832;4.758;2022-08-11T01:47:38;24.90;57.00
11491;DHT22;5802;52.832;4.758;2022-08-11T01:50:27;24.90;57.00
11491;DHT22;5802;52.832;4.758;2022-08-11T01:53:09;24.90;56.90
11491;DHT22;5802;52.832;4.758;2022-08-11T01:55:44;24.90;56.90
11491;DHT22;5802;52.832;4.758;2022-08-11T01:58:21;24.90;56.90
11491;DHT22;5802;52.832;4.758;2022-08-11T02:00:57;25.00;56.90
11491;DHT22;5802;52.832;4.758;2022-08-11T02:03:34;24.90;56.90
11491;DHT22;5802;52.832;4.758;2022-08-11T02:06:13;24.90;56.90
11491;DHT22;5802;52.832;4.758;2022-08-11T02:09:12;24.90;56.90
11491;DHT22;5802;52.832;4.758;2022-08-11T02:11:44;24.90;56.90
11491;DHT22;5802;52.832;4.758;2022-08-11T02:14:16;24.90;56.90
11491;DHT22;5802;52.832;4.758;2022-08-11T02:16:59;24.90;56.90
11491;DHT22;5802;52.832;4.758;2022-08-11T02:19:37;24.90;56.90
11491;DHT22;5802;52.832;4.758;2022-08-11T02:22:30;24.90;56.90
11491;DHT22;5802;52.832;4.758;2022-08-11T02:25:26;24.90;56.90
11491;DHT22;5802;52.832;4.758;2022-08-11T02:28:01;24.90;56.90
11491;DHT22;5802;52.832;4.758;2022-08-11T02:30:34;24.80;56.90
11491;DHT22;5802;52.832;4.758;2022-08-11T02:33:15;24.80;56.90
11491;DHT22;5802;52.832;4.758;2022-08-11T02:35:56;24.90;57.00
11491;DHT22;5802;52.832;4.758;2022-08-11T02:38:30;24.90;57.00
11491;DHT22;5802;52.832;4.758;2022-08-11T02:41:02;24.90;57.00
11491;DHT22;5802;52.832;4.758;2022-08-11T02:44:05;24.80;57.00
11491;DHT22;5802;52.832;4.758;2022-08-11T02:46:41;24.80;57.00
11491;DHT22;5802;52.832;4.758;2022-08-11T02:49:17;24.80;57.00
11491;DHT22;5802;52.832;4.758;2022-08-11T02:52:06;24.80;57.00
11491;DHT22;5802;52.832;4.758;2022-08-11T02:54:41;24.80;57.00
11491;DHT22;5802;52.832;4.758;2022-08-11T02:57:17;24.80;57.00
11491;DHT22;5802;52.832;4.758;2022-08-11T02:59:50;24.80;57.10
11491;DHT22;5802;52.832;4.758;2022-08-11T03:02:41;24.80;57.10
11491;DHT22;5802;52.832;4.758;2022-08-11T03:05:29;24.70;57.60
11491;DHT22;5802;52.832;4.758;2022-08-11T03:08:17;24.80;57.10
11491;DHT22;5802;52.832;4.758;2022-08-11T03:10:59;24.70;57.10
11491;DHT22;5802;52.832;4.758;2022-08-11T03:13:50;24.70;57.00
11491;DHT22;5802;52.832;4.758;2022-08-11T03:16:45;24.70;57.10
11491;DHT22;5802;52.832;4.758;2022-08-11T03:19:20;24.70;57.10
11491;DHT22;5802;52.832;4.758;2022-08-11T03:21:57;24.70;57.10
11491;DHT22;5802;52.832;4.758;2022-08-11T03:24:32;24.70;57.10
11491;DHT22;5802;52.832;4.758;2022-08-11T03:27:07;24.70;57.00
11491;DHT22;5802;52.832;4.758;2022-08-11T03:29:41;24.70;57.10
11491;DHT22;5802;52.832;4.758;2022-08-11T03:32:21;24.70;57.10
11491;DHT22;5802;52.832;4.758;2022-08-11T03:34:50;24.70;57.10
11491;DHT22;5802;52.832;4.758;2022-08-11T03:37:45;24.70;57.10
11491;DHT22;5802;52.832;4.758;2022-08-11T03:40:48;24.60;56.90
11491;DHT22;5802;52.832;4.758;2022-08-11T03:43:49;24.70;57.00
11491;DHT22;5802;52.832;4.758;2022-08-11T03:46:25;24.60;56.90
11491;DHT22;5802;52.832;4.758;2022-08-11T03:48:58;24.60;57.00
11491;DHT22;5802;52.832;4.758;2022-08-11T03:51:30;24.60;56.90
11491;DHT22;5802;52.832;4.758;2022-08-11T03:54:13;24.60;56.90
11491;DHT22;5802;52.832;4.758;2022-08-11T03:57:28;24.60;57.00
11491;DHT22;5802;52.832;4.758;2022-08-11T04:00:22;24.60;56.90
11491;DHT22;5802;52.832;4.758;2022-08-11T04:03:26;24.60;57.00
11491;DHT22;5802;52.832;4.758;2022-08-11T04:09:53;24.60;57.00
11491;DHT22;5802;52.832;4.758;2022-08-11T04:12:38;24.50;57.00
11491;DHT22;5802;52.832;4.758;2022-08-11T04:15:34;24.60;57.20
11491;DHT22;5802;52.832;4.758;2022-08-11T04:18:49;24.50;57.00
11491;DHT22;5802;52.832;4.758;2022-08-11T04:24:44;24.50;57.10
11491;DHT22;5802;52.832;4.758;2022-08-11T04:27:46;24.50;57.10
11491;DHT22;5802;52.832;4.758;2022-08-11T04:30:19;24.50;57.20
11491;DHT22;5802;52.832;4.758;2022-08-11T04:33:23;24.50;57.20
11491;DHT22;5802;52.832;4.758;2022-08-11T04:36:06;24.50;57.20
11491;DHT22;5802;52.832;4.758;2022-08-11T04:39:00;24.50;57.20
11491;DHT22;5802;52.832;4.758;2022-08-11T04:42:12;24.50;57.10
11491;DHT22;5802;52.832;4.758;2022-08-11T04:45:32;24.50;57.10
11491;DHT22;5802;52.832;4.758;2022-08-11T04:48:26;24.50;57.20
11491;DHT22;5802;52.832;4.758;2022-08-11T04:51:47;24.50;57.20
11491;DHT22;5802;52.832;4.758;2022-08-11T04:54:45;24.50;57.20
11491;DHT22;5802;52.832;4.758;2022-08-11T04:57:48;24.50;57.20
11491;DHT22;5802;52.832;4.758;2022-08-11T05:00:40;24.50;57.20
11491;DHT22;5802;52.832;4.758;2022-08-11T05:03:39;24.50;57.20
11491;DHT22;5802;52.832;4.758;2022-08-11T05:06:55;24.50;57.20
11491;DHT22;5802;52.832;4.758;2022-08-11T05:09:52;24.50;57.10
11491;DHT22;5802;52.832;4.758;2022-08-11T05:12:30;24.50;57.20
11491;DHT22;5802;52.832;4.758;2022-08-11T05:15:00;24.40;57.10
11491;DHT22;5802;52.832;4.758;2022-08-11T05:17:56;24.50;57.20
11491;DHT22;5802;52.832;4.758;2022-08-11T05:20:47;24.50;57.10
11491;DHT22;5802;52.832;4.758;2022-08-11T05:23:38;24.50;57.10
11491;DHT22;5802;52.832;4.758;2022-08-11T05:26:24;24.50;57.30
11491;DHT22;5802;52.832;4.758;2022-08-11T05:29:38;24.50;57.50
11491;DHT22;5802;52.832;4.758;2022-08-11T05:32:23;24.50;57.70
11491;DHT22;5802;52.832;4.758;2022-08-11T05:35:11;24.40;57.90
11491;DHT22;5802;52.832;4.758;2022-08-11T05:37:43;24.40;58.00
11491;DHT22;5802;52.832;4.758;2022-08-11T05:40:28;24.50;58.20
11491;DHT22;5802;52.832;4.758;2022-08-11T05:43:14;24.40;58.10
11491;DHT22;5802;52.832;4.758;2022-08-11T05:46:00;24.40;58.20
11491;DHT22;5802;52.832;4.758;2022-08-11T05:48:46;24.50;58.40
11491;DHT22;5802;52.832;4.758;2022-08-11T05:51:35;24.50;58.40
11491;DHT22;5802;52.832;4.758;2022-08-11T05:54:22;24.50;58.60
11491;DHT22;5802;52.832;4.758;2022-08-11T05:57:08;24.50;58.60
11491;DHT22;5802;52.832;4.758;2022-08-11T05:59:35;24.50;58.60
11491;DHT22;5802;52.832;4.758;2022-08-11T06:02:04;24.50;58.70
11491;DHT22;5802;52.832;4.758;2022-08-11T06:04:32;24.50;58.60
11491;DHT22;5802;52.832;4.758;2022-08-11T06:07:00;24.50;58.60
11491;DHT22;5802;52.832;4.758;2022-08-11T06:09:31;24.50;58.50
11491;DHT22;5802;52.832;4.758;2022-08-11T06:12:02;24.50;58.50
11491;DHT22;5802;52.832;4.758;2022-08-11T06:14:30;24.50;58.50
11491;DHT22;5802;52.832;4.758;2022-08-11T06:16:59;24.60;58.60
11491;DHT22;5802;52.832;4.758;2022-08-11T06:19:34;24.60;58.40
11491;DHT22;5802;52.832;4.758;2022-08-11T06:22:02;24.60;58.30
11491;DHT22;5802;52.832;4.758;2022-08-11T06:24:32;24.60;58.20
11491;DHT22;5802;52.832;4.758;2022-08-11T06:26:59;24.70;58.30
11491;DHT22;5802;52.832;4.758;2022-08-11T06:29:27;24.70;58.40
11491;DHT22;5802;52.832;4.758;2022-08-11T06:31:56;24.70;58.40
11491;DHT22;5802;52.832;4.758;2022-08-11T06:35:00;24.70;58.40
11491;DHT22;5802;52.832;4.758;2022-08-11T06:40:35;24.80;58.00
11491;DHT22;5802;52.832;4.758;2022-08-11T06:43:19;24.80;57.70
11491;DHT22;5802;52.832;4.758;2022-08-11T06:45:52;24.90;57.70
11491;DHT22;5802;52.832;4.758;2022-08-11T06:48:22;24.90;57.50
11491;DHT22;5802;52.832;4.758;2022-08-11T06:50:51;24.90;57.30
11491;DHT22;5802;52.832;4.758;2022-08-11T06:53:38;25.00;57.10
11491;DHT22;5802;52.832;4.758;2022-08-11T06:56:09;25.00;57.00
11491;DHT22;5802;52.832;4.758;2022-08-11T06:59:03;25.10;56.80
11491;DHT22;5802;52.832;4.758;2022-08-11T07:01:56;25.10;56.70
11491;DHT22;5802;52.832;4.758;2022-08-11T07:04:30;25.20;56.70
11491;DHT22;5802;52.832;4.758;2022-08-11T07:07:22;25.30;56.60
11491;DHT22;5802;52.832;4.758;2022-08-11T07:10:32;25.30;56.60
11491;DHT22;5802;52.832;4.758;2022-08-11T07:13:26;25.40;56.50
11491;DHT22;5802;52.832;4.758;2022-08-11T07:16:15;25.40;56.50
11491;DHT22;5802;52.832;4.758;2022-08-11T07:18:46;25.50;56.50
11491;DHT22;5802;52.832;4.758;2022-08-11T07:21:34;25.50;56.40
11491;DHT22;5802;52.832;4.758;2022-08-11T07:24:22;25.60;56.40
11491;DHT22;5802;52.832;4.758;2022-08-11T07:27:12;25.60;56.30
11491;DHT22;5802;52.832;4.758;2022-08-11T07:30:00;25.70;56.40
11491;DHT22;5802;52.832;4.758;2022-08-11T07:32:30;25.80;56.30
11491;DHT22;5802;52.832;4.758;2022-08-11T07:35:03;25.80;56.30
11491;DHT22;5802;52.832;4.758;2022-08-11T07:37:35;25.80;56.20
11491;DHT22;5802;52.832;4.758;2022-08-11T07:40:03;25.90;56.20
11491;DHT22;5802;52.832;4.758;2022-08-11T07:42:32;26.00;56.20
11491;DHT22;5802;52.832;4.758;2022-08-11T07:45:04;26.00;56.10
11491;DHT22;5802;52.832;4.758;2022-08-11T07:47:49;26.10;56.10
11491;DHT22;5802;52.832;4.758;2022-08-11T07:50:35;26.10;56.00
11491;DHT22;5802;52.832;4.758;2022-08-11T07:53:23;26.20;56.00
11491;DHT22;5802;52.832;4.758;2022-08-11T07:55:52;26.20;56.00
11491;DHT22;5802;52.832;4.758;2022-08-11T07:58:22;26.30;55.90
11491;DHT22;5802;52.832;4.758;2022-08-11T08:01:08;26.30;55.90
11491;DHT22;5802;52.832;4.758;2022-08-11T08:03:54;26.40;55.90
11491;DHT22;5802;52.832;4.758;2022-08-11T08:06:39;26.50;55.90
11491;DHT22;5802;52.832;4.758;2022-08-11T08:09:24;26.50;55.80
11491;DHT22;5802;52.832;4.758;2022-08-11T08:12:09;26.50;55.70
11491;DHT22;5802;52.832;4.758;2022-08-11T08:14:57;26.60;55.70
11491;DHT22;5802;52.832;4.758;2022-08-11T08:17:43;26.60;55.60
11491;DHT22;5802;52.832;4.758;2022-08-11T08:20:19;26.70;55.50
11491;DHT22;5802;52.832;4.758;2022-08-11T08:22:50;26.80;55.50
11491;DHT22;5802;52.832;4.758;2022-08-11T08:25:22;26.80;55.40
11491;DHT22;5802;52.832;4.758;2022-08-11T08:27:49;26.90;55.30
11491;DHT22;5802;52.832;4.758;2022-08-11T08:30:17;26.90;55.20
11491;DHT22;5802;52.832;4.758;2022-08-11T08:33:03;27.00;55.20
11491;DHT22;5802;52.832;4.758;2022-08-11T08:35:30;27.00;55.00
11491;DHT22;5802;52.832;4.758;2022-08-11T08:37:57;27.10;54.90
11491;DHT22;5802;52.832;4.758;2022-08-11T08:40:25;27.20;54.90
11491;DHT22;5802;52.832;4.758;2022-08-11T08:42:54;27.20;54.70
11491;DHT22;5802;52.832;4.758;2022-08-11T08:45:23;27.30;54.70
11491;DHT22;5802;52.832;4.758;2022-08-11T08:47:56;27.30;54.50
11491;DHT22;5802;52.832;4.758;2022-08-11T08:50:28;27.40;54.50
11491;DHT22;5802;52.832;4.758;2022-08-11T08:53:19;27.50;54.40
11491;DHT22;5802;52.832;4.758;2022-08-11T08:55:47;27.50;54.20
11491;DHT22;5802;52.832;4.758;2022-08-11T08:58:17;27.60;54.20
11491;DHT22;5802;52.832;4.758;2022-08-11T09:00:45;27.60;54.00
11491;DHT22;5802;52.832;4.758;2022-08-11T09:03:15;27.60;53.90
11491;DHT22;5802;52.832;4.758;2022-08-11T09:05:45;27.70;53.80
11491;DHT22;5802;52.832;4.758;2022-08-11T09:08:15;27.70;53.60
11491;DHT22;5802;52.832;4.758;2022-08-11T09:10:44;27.80;53.60
11491;DHT22;5802;52.832;4.758;2022-08-11T09:13:13;27.80;53.40
11491;DHT22;5802;52.832;4.758;2022-08-11T09:15:41;27.80;53.30
11491;DHT22;5802;52.832;4.758;2022-08-11T09:18:07;27.90;53.30
11491;DHT22;5802;52.832;4.758;2022-08-11T09:20:36;27.90;53.20
11491;DHT22;5802;52.832;4.758;2022-08-11T09:23:07;27.90;53.10
11491;DHT22;5802;52.832;4.758;2022-08-11T09:25:54;28.00;53.00
11491;DHT22;5802;52.832;4.758;2022-08-11T09:28:40;28.00;52.90
11491;DHT22;5802;52.832;4.758;2022-08-11T09:31:08;28.00;52.80
11491;DHT22;5802;52.832;4.758;2022-08-11T09:33:37;28.00;52.80
11491;DHT22;5802;52.832;4.758;2022-08-11T09:36:06;28.00;52.80
11491;DHT22;5802;52.832;4.758;2022-08-11T09:38:49;28.00;52.70
11491;DHT22;5802;52.832;4.758;2022-08-11T09:41:35;28.00;52.70
11491;DHT22;5802;52.832;4.758;2022-08-11T09:44:02;28.00;52.70
11491;DHT22;5802;52.832;4.758;2022-08-11T09:46:48;28.00;52.70
11491;DHT22;5802;52.832;4.758;2022-08-11T09:49:18;27.90;52.70
11491;DHT22;5802;52.832;4.758;2022-08-11T09:51:46;27.90;52.80
11491;DHT22;5802;52.832;4.758;2022-08-11T09:54:15;27.90;52.80
11491;DHT22;5802;52.832;4.758;2022-08-11T09:56:43;27.90;52.80
11491;DHT22;5802;52.832;4.758;2022-08-11T09:59:28;27.90;52.90
11491;DHT22;5802;52.832;4.758;2022-08-11T10:02:00;27.90;52.90
11491;DHT22;5802;52.832;4.758;2022-08-11T10:04:34;27.90;53.00
11491;DHT22;5802;52.832;4.758;2022-08-11T10:07:04;27.90;53.00
11491;DHT22;5802;52.832;4.758;2022-08-11T10:09:38;27.90;53.10
11491;DHT22;5802;52.832;4.758;2022-08-11T10:12:09;27.90;53.20
11491;DHT22;5802;52.832;4.758;2022-08-11T10:14:41;27.90;53.20
11491;DHT22;5802;52.832;4.758;2022-08-11T10:17:29;27.90;53.30
11491;DHT22;5802;52.832;4.758;2022-08-11T10:19:58;27.80;53.30
11491;DHT22;5802;52.832;4.758;2022-08-11T10:22:29;27.80;53.30
11491;DHT22;5802;52.832;4.758;2022-08-11T10:25:15;27.80;53.90
11491;DHT22;5802;52.832;4.758;2022-08-11T10:27:59;27.80;53.30
11491;DHT22;5802;52.832;4.758;2022-08-11T10:30:29;27.70;53.30
11491;DHT22;5802;52.832;4.758;2022-08-11T10:33:13;27.70;53.20
11491;DHT22;5802;52.832;4.758;2022-08-11T10:36:00;27.70;53.20
11491;DHT22;5802;52.832;4.758;2022-08-11T10:38:34;27.70;53.10
11491;DHT22;5802;52.832;4.758;2022-08-11T10:41:04;27.60;53.00
11491;DHT22;5802;52.832;4.758;2022-08-11T10:43:56;27.60;52.80
11491;DHT22;5802;52.832;4.758;2022-08-11T10:46:23;27.60;52.80
11491;DHT22;5802;52.832;4.758;2022-08-11T10:49:08;27.60;52.80
11491;DHT22;5802;52.832;4.758;2022-08-11T10:51:35;27.60;52.70
11491;DHT22;5802;52.832;4.758;2022-08-11T10:54:20;27.60;52.70
11491;DHT22;5802;52.832;4.758;2022-08-11T10:57:07;27.60;52.70
11491;DHT22;5802;52.832;4.758;2022-08-11T10:59:52;27.60;52.60
11491;DHT22;5802;52.832;4.758;2022-08-11T11:02:20;27.50;52.50
11491;DHT22;5802;52.832;4.758;2022-08-11T11:04:57;27.50;52.40
11491;DHT22;5802;52.832;4.758;2022-08-11T11:07:34;27.50;52.30
11491;DHT22;5802;52.832;4.758;2022-08-11T11:10:04;27.50;52.20
11491;DHT22;5802;52.832;4.758;2022-08-11T11:12:37;27.50;52.00
11491;DHT22;5802;52.832;4.758;2022-08-11T11:15:24;27.50;51.90
11491;DHT22;5802;52.832;4.758;2022-08-11T11:18:13;27.50;51.80
11491;DHT22;5802;52.832;4.758;2022-08-11T11:20:43;27.50;51.70
11491;DHT22;5802;52.832;4.758;2022-08-11T11:23:14;27.50;51.40
11491;DHT22;5802;52.832;4.758;2022-08-11T11:31:52;27.60;51.20
11491;DHT22;5802;52.832;4.758;2022-08-11T11:34:36;27.60;51.20
11491;DHT22;5802;52.832;4.758;2022-08-11T11:37:05;27.60;51.00
11491;DHT22;5802;52.832;4.758;2022-08-11T11:39:32;27.60;51.00
11491;DHT22;5802;52.832;4.758;2022-08-11T11:42:03;27.60;50.90
11491;DHT22;5802;52.832;4.758;2022-08-11T11:44:32;27.60;50.80
11491;DHT22;5802;52.832;4.758;2022-08-11T11:47:01;27.60;50.70
11491;DHT22;5802;52.832;4.758;2022-08-11T11:49:29;27.60;50.70
11491;DHT22;5802;52.832;4.758;2022-08-11T11:51:57;27.60;50.80
11491;DHT22;5802;52.832;4.758;2022-08-11T11:54:31;27.60;50.70
11491;DHT22;5802;52.832;4.758;2022-08-11T11:56:59;27.60;50.60
11491;DHT22;5802;52.832;4.758;2022-08-11T11:59:49;27.60;50.60
11491;DHT22;5802;52.832;4.758;2022-08-11T12:02:34;27.60;50.60
11491;DHT22;5802;52.832;4.758;2022-08-11T12:05:01;27.60;50.50
11491;DHT22;5802;52.832;4.758;2022-08-11T12:07:28;27.60;50.70
11491;DHT22;5802;52.832;4.758;2022-08-11T12:10:14;27.60;50.80
11491;DHT22;5802;52.832;4.758;2022-08-11T12:12:41;27.60;50.90
11491;DHT22;5802;52.832;4.758;2022-08-11T12:15:27;27.60;50.90
11491;DHT22;5802;52.832;4.758;2022-08-11T12:17:55;27.60;51.00
11491;DHT22;5802;52.832;4.758;2022-08-11T12:20:23;27.60;51.00
11491;DHT22;5802;52.832;4.758;2022-08-11T12:22:50;27.60;51.20
11491;DHT22;5802;52.832;4.758;2022-08-11T12:25:34;27.60;51.20
11491;DHT22;5802;52.832;4.758;2022-08-11T12:28:19;27.60;51.20
11491;DHT22;5802;52.832;4.758;2022-08-11T12:30:48;27.60;51.30
11491;DHT22;5802;52.832;4.758;2022-08-11T12:33:17;27.60;51.30
11491;DHT22;5802;52.832;4.758;2022-08-11T12:35:45;27.60;51.30
11491;DHT22;5802;52.832;4.758;2022-08-11T12:38:15;27.60;51.40
11491;DHT22;5802;52.832;4.758;2022-08-11T12:40:44;27.60;51.50
11491;DHT22;5802;52.832;4.758;2022-08-11T12:43:31;27.60;51.50
11491;DHT22;5802;52.832;4.758;2022-08-11T12:46:21;27.60;51.50
11491;DHT22;5802;52.832;4.758;2022-08-11T12:48:50;27.60;51.60
11491;DHT22;5802;52.832;4.758;2022-08-11T12:51:40;27.60;51.70
11491;DHT22;5802;52.832;4.758;2022-08-11T12:54:26;27.60;51.80
11491;DHT22;5802;52.832;4.758;2022-08-11T12:57:00;27.60;51.80
11491;DHT22;5802;52.832;4.758;2022-08-11T12:59:46;27.60;51.80
11491;DHT22;5802;52.832;4.758;2022-08-11T13:02:33;27.60;51.80
11491;DHT22;5802;52.832;4.758;2022-08-11T13:05:19;27.60;51.90
11491;DHT22;5802;52.832;4.758;2022-08-11T13:07:47;27.60;51.90
11491;DHT22;5802;52.832;4.758;2022-08-11T13:10:16;27.60;51.90
11491;DHT22;5802;52.832;4.758;2022-08-11T13:13:06;27.60;51.90
11491;DHT22;5802;52.832;4.758;2022-08-11T13:15:33;27.60;51.90
11491;DHT22;5802;52.832;4.758;2022-08-11T13:18:04;27.60;52.00
11491;DHT22;5802;52.832;4.758;2022-08-11T13:20:33;27.60;52.00
11491;DHT22;5802;52.832;4.758;2022-08-11T13:23:00;27.60;52.00
11491;DHT22;5802;52.832;4.758;2022-08-11T13:25:30;27.60;51.90
11491;DHT22;5802;52.832;4.758;2022-08-11T13:27:59;27.60;51.90
11491;DHT22;5802;52.832;4.758;2022-08-11T13:30:29;27.60;52.10
11491;DHT22;5802;52.832;4.758;2022-08-11T13:33:16;27.60;51.80
11491;DHT22;5802;52.832;4.758;2022-08-11T13:35:45;27.70;51.90
11491;DHT22;5802;52.832;4.758;2022-08-11T13:38:14;27.70;51.90
11491;DHT22;5802;52.832;4.758;2022-08-11T13:40:42;27.70;51.90
11491;DHT22;5802;52.832;4.758;2022-08-11T13:43:10;27.70;51.90
11491;DHT22;5802;52.832;4.758;2022-08-11T13:45:39;27.70;51.90
11491;DHT22;5802;52.832;4.758;2022-08-11T13:48:08;27.70;52.00
11491;DHT22;5802;52.832;4.758;2022-08-11T13:50:36;27.80;52.10
11491;DHT22;5802;52.832;4.758;2022-08-11T13:53:23;27.80;52.10
11491;DHT22;5802;52.832;4.758;2022-08-11T13:55:51;27.80;52.10
11491;DHT22;5802;52.832;4.758;2022-08-11T13:58:19;27.80;52.10
11491;DHT22;5802;52.832;4.758;2022-08-11T14:00:50;27.90;52.20
11491;DHT22;5802;52.832;4.758;2022-08-11T14:03:22;27.90;52.10
11491;DHT22;5802;52.832;4.758;2022-08-11T14:05:51;27.90;52.10
11491;DHT22;5802;52.832;4.758;2022-08-11T14:08:24;28.00;52.10
11491;DHT22;5802;52.832;4.758;2022-08-11T14:10:52;28.00;51.90
11491;DHT22;5802;52.832;4.758;2022-08-11T14:13:36;28.10;51.90
11491;DHT22;5802;52.832;4.758;2022-08-11T14:16:08;28.10;51.90
11491;DHT22;5802;52.832;4.758;2022-08-11T14:18:43;28.20;51.90
11491;DHT22;5802;52.832;4.758;2022-08-11T14:21:15;28.20;51.80
11491;DHT22;5802;52.832;4.758;2022-08-11T14:24:01;28.30;51.80
11491;DHT22;5802;52.832;4.758;2022-08-11T14:26:29;28.30;51.70
11491;DHT22;5802;52.832;4.758;2022-08-11T14:29:06;28.40;51.60
11491;DHT22;5802;52.832;4.758;2022-08-11T14:31:35;28.40;52.20
11491;DHT22;5802;52.832;4.758;2022-08-11T14:34:05;28.40;51.40
11491;DHT22;5802;52.832;4.758;2022-08-11T14:36:35;28.50;51.40
11491;DHT22;5802;52.832;4.758;2022-08-11T14:39:07;28.50;51.30
11491;DHT22;5802;52.832;4.758;2022-08-11T14:41:37;28.60;51.30
11491;DHT22;5802;52.832;4.758;2022-08-11T14:44:23;28.60;51.20
11491;DHT22;5802;52.832;4.758;2022-08-11T14:47:08;28.70;51.20
11491;DHT22;5802;52.832;4.758;2022-08-11T14:49:40;28.70;51.10
11491;DHT22;5802;52.832;4.758;2022-08-11T14:52:10;28.70;51.00
11491;DHT22;5802;52.832;4.758;2022-08-11T14:54:41;28.80;50.90
11491;DHT22;5802;52.832;4.758;2022-08-11T14:57:25;28.80;50.80
11491;DHT22;5802;52.832;4.758;2022-08-11T14:59:54;28.80;50.70
11491;DHT22;5802;52.832;4.758;2022-08-11T15:02:23;28.90;50.70
11491;DHT22;5802;52.832;4.758;2022-08-11T15:05:08;28.90;50.50
11491;DHT22;5802;52.832;4.758;2022-08-11T15:07:36;28.90;50.40
11491;DHT22;5802;52.832;4.758;2022-08-11T15:10:06;28.90;50.10
11491;DHT22;5802;52.832;4.758;2022-08-11T15:12:34;29.00;50.20
11491;DHT22;5802;52.832;4.758;2022-08-11T15:15:02;29.00;50.20
11491;DHT22;5802;52.832;4.758;2022-08-11T15:17:49;29.00;49.90
11491;DHT22;5802;52.832;4.758;2022-08-11T15:20:18;29.00;50.00
11491;DHT22;5802;52.832;4.758;2022-08-11T15:23:05;29.00;49.80
11491;DHT22;5802;52.832;4.758;2022-08-11T15:25:53;29.10;49.70
11491;DHT22;5802;52.832;4.758;2022-08-11T15:28:21;29.10;49.80
11491;DHT22;5802;52.832;4.758;2022-08-11T15:31:06;29.10;49.70
11491;DHT22;5802;52.832;4.758;2022-08-11T15:34:04;29.10;49.60
11491;DHT22;5802;52.832;4.758;2022-08-11T15:36:50;29.10;49.40
11491;DHT22;5802;52.832;4.758;2022-08-11T15:39:45;29.10;49.40
11491;DHT22;5802;52.832;4.758;2022-08-11T15:42:36;29.10;49.30
11491;DHT22;5802;52.832;4.758;2022-08-11T15:45:24;29.10;49.40
11491;DHT22;5802;52.832;4.758;2022-08-11T15:48:11;29.00;49.30
11491;DHT22;5802;52.832;4.758;2022-08-11T15:50:47;29.00;49.40
11491;DHT22;5802;52.832;4.758;2022-08-11T15:53:23;29.00;49.20
11491;DHT22;5802;52.832;4.758;2022-08-11T15:55:53;29.00;49.30
11491;DHT22;5802;52.832;4.758;2022-08-11T15:58:22;29.00;49.20
11491;DHT22;5802;52.832;4.758;2022-08-11T16:01:08;29.00;49.30
11491;DHT22;5802;52.832;4.758;2022-08-11T16:03:57;29.00;49.20
11491;DHT22;5802;52.832;4.758;2022-08-11T16:06:42;29.00;49.40
11491;DHT22;5802;52.832;4.758;2022-08-11T16:09:11;29.00;49.60
11491;DHT22;5802;52.832;4.758;2022-08-11T16:11:40;29.00;49.60
11491;DHT22;5802;52.832;4.758;2022-08-11T16:14:10;29.00;49.60
11491;DHT22;5802;52.832;4.758;2022-08-11T16:16:56;29.00;49.80
11491;DHT22;5802;52.832;4.758;2022-08-11T16:19:26;29.00;50.00
11491;DHT22;5802;52.832;4.758;2022-08-11T16:21:59;29.00;50.20
11491;DHT22;5802;52.832;4.758;2022-08-11T16:24:27;29.00;50.30
11491;DHT22;5802;52.832;4.758;2022-08-11T16:26:57;29.00;50.30
11491;DHT22;5802;52.832;4.758;2022-08-11T16:29:25;29.00;50.40
11491;DHT22;5802;52.832;4.758;2022-08-11T16:31:55;29.00;50.50
11491;DHT22;5802;52.832;4.758;2022-08-11T16:34:41;29.00;50.60
11491;DHT22;5802;52.832;4.758;2022-08-11T16:37:27;29.00;50.60
11491;DHT22;5802;52.832;4.758;2022-08-11T16:40:13;29.00;50.60
11491;DHT22;5802;52.832;4.758;2022-08-11T16:42:45;29.00;50.50
11491;DHT22;5802;52.832;4.758;2022-08-11T16:45:31;28.90;50.50
11491;DHT22;5802;52.832;4.758;2022-08-11T16:48:17;28.90;50.20
11491;DHT22;5802;52.832;4.758;2022-08-11T16:50:44;28.90;50.30
11491;DHT22;5802;52.832;4.758;2022-08-11T16:53:12;28.90;50.30
11491;DHT22;5802;52.832;4.758;2022-08-11T16:55:40;28.90;50.20
11491;DHT22;5802;52.832;4.758;2022-08-11T16:58:08;28.90;50.20
11491;DHT22;5802;52.832;4.758;2022-08-11T17:00:55;28.80;49.90
11491;DHT22;5802;52.832;4.758;2022-08-11T17:03:23;28.80;49.80
11491;DHT22;5802;52.832;4.758;2022-08-11T17:06:22;28.80;49.90
11491;DHT22;5802;52.832;4.758;2022-08-11T17:09:07;28.70;49.90
11491;DHT22;5802;52.832;4.758;2022-08-11T17:11:54;28.70;49.90
11491;DHT22;5802;52.832;4.758;2022-08-11T17:14:42;28.60;49.90
11491;DHT22;5802;52.832;4.758;2022-08-11T17:17:14;28.60;50.10
11491;DHT22;5802;52.832;4.758;2022-08-11T17:19:44;28.60;50.30
11491;DHT22;5802;52.832;4.758;2022-08-11T17:22:13;28.50;50.30
11491;DHT22;5802;52.832;4.758;2022-08-11T17:24:58;28.50;50.30
11491;DHT22;5802;52.832;4.758;2022-08-11T17:27:26;28.50;50.50
11491;DHT22;5802;52.832;4.758;2022-08-11T17:29:57;28.50;50.60
11491;DHT22;5802;52.832;4.758;2022-08-11T17:32:29;28.40;50.60
11491;DHT22;5802;52.832;4.758;2022-08-11T17:35:17;28.40;50.60
11491;DHT22;5802;52.832;4.758;2022-08-11T17:38:02;28.40;50.70